This is the latest recevied weather packets stored in our database for station/object DL9RAN-11. If no packets are shown the sender has not sent any weather packets the latest 1 day(s).
| Time | Temp. | Humidity | Pressure | Rain* | Wind** | Luminosity | Snow |
|---|---|---|---|---|---|---|---|
| 1778091945 | 14.44° C | 75% | 1008.8 hPa | - | - | - | - |
| 1778090382 | 14.44° C | 75% | 1008.8 hPa | - | - | - | - |
| 1778089119 | 15.56° C | 70% | 1009.3 hPa | - | - | - | - |
| 1778085962 | 17.78° C | 65% | 1009.7 hPa | - | - | - | - |
| 1778085030 | 18.89° C | 56% | 1008.6 hPa | - | - | - | - |
| 1778083436 | 20° C | 53% | 1007.8 hPa | - | - | - | - |
| 1778082204 | 20.56° C | 51% | 1007.4 hPa | - | - | - | - |
| 1778077784 | 21.11° C | 51% | 1008.3 hPa | - | - | - | - |
| 1778075558 | 20.56° C | 52% | 1008.6 hPa | - | - | - | - |
| 1778072701 | 20° C | 53% | 1009 hPa | - | - | - | - |
| 1778071769 | 20° C | 53% | 1009 hPa | - | - | - | - |
| 1778067525 | 20.56° C | 53% | 1010 hPa | - | - | - | - |
| 1778066293 | 20.56° C | 54% | 1010.4 hPa | - | - | - | - |
| 1778064729 | 20° C | 55% | 1010.6 hPa | - | - | - | - |
| 1778064429 | 20° C | 55% | 1010.7 hPa | - | - | - | - |
| 1778063166 | 20° C | 56% | 1010.7 hPa | - | - | - | - |
| 1778062565 | 20° C | 58% | 1010.7 hPa | - | - | - | - |
| 1778061934 | 20° C | 57% | 1010.7 hPa | - | - | - | - |
| 1778059377 | 19.44° C | 61% | 1010.9 hPa | - | - | - | - |
| 1778058445 | 18.89° C | 62% | 1010.9 hPa | - | - | - | - |
| 1778057182 | 18.33° C | 65% | 1011.1 hPa | - | - | - | - |
| 1778055919 | 18.33° C | 66% | 1010.8 hPa | - | - | - | - |
| 1778054656 | 17.78° C | 67% | 1011 hPa | - | - | - | - |
| 1778054025 | 17.22° C | 68% | 1010.8 hPa | - | - | - | - |
| 1778052731 | 16.67° C | 69% | 1011.1 hPa | - | - | - | - |
* Rain since midnight (hover to see other rain measurements)
** Current wind speed in m/s (hover to see current wind gust speed)